This is the latest recevied weather packets stored in our database for station/object K5RWS. If no packets are shown the sender has not sent any weather packets the latest 1 day(s).
| Time | Temp. | Humidity | Pressure | Rain* | Wind** | Luminosity | Snow |
|---|---|---|---|---|---|---|---|
| 1778011704 | 15° C | 47% | 1014 hPa | 0 mm | 0.89 m/s, 278° | 620 W/m² | - |
| 1778011400 | 14.44° C | 48% | 1014.1 hPa | 0 mm | 2.24 m/s, 322° | 576 W/m² | - |
| 1778011095 | 14.44° C | 49% | 1014.2 hPa | 0 mm | 2.24 m/s, 311° | 346 W/m² | - |
| 1778010793 | 14.44° C | 48% | 1014.5 hPa | 0 mm | 4.02 m/s, 287° | 295 W/m² | - |
| 1778010490 | 14.44° C | 47% | 1014.1 hPa | 0 mm | 3.13 m/s, 283° | 314 W/m² | - |
| 1778010187 | 15° C | 47% | 1014.3 hPa | 0 mm | 4.02 m/s, 279° | 534 W/m² | - |
| 1778009882 | 14.44° C | 45% | 1014.3 hPa | 0 mm | 3.58 m/s, 272° | 446 W/m² | - |
| 1778009580 | 14.44° C | 46% | 1014.5 hPa | 0 mm | 2.24 m/s, 254° | 342 W/m² | - |
| 1778009278 | 14.44° C | 45% | 1014.6 hPa | 0 mm | 2.68 m/s, 285° | 321 W/m² | - |
| 1778008976 | 15.56° C | 42% | 1014.3 hPa | 0 mm | 4.02 m/s, 280° | 729 W/m² | - |
| 1778008674 | 14.44° C | 46% | 1014.2 hPa | 0 mm | 3.58 m/s, 275° | 370 W/m² | - |
| 1778008372 | 13.89° C | 47% | 1014.3 hPa | 0 mm | 4.02 m/s, 274° | 384 W/m² | - |
| 1778008068 | 15° C | 46% | 1014.5 hPa | 0 mm | 2.68 m/s, 269° | 370 W/m² | - |
| 1778007763 | 15° C | 46% | 1014.3 hPa | 0 mm | 3.13 m/s, 266° | 425 W/m² | - |
| 1778007460 | 15° C | 44% | 1014.3 hPa | 0 mm | 5.36 m/s, 267° | 707 W/m² | - |
| 1778007156 | 14.44° C | 46% | 1014.5 hPa | 0 mm | 4.92 m/s, 253° | 600 W/m² | - |
| 1778006852 | 13.89° C | 46% | 1014.3 hPa | 0 mm | 4.47 m/s, 246° | 450 W/m² | - |
| 1778006550 | 14.44° C | 46% | 1014.6 hPa | 0 mm | 5.81 m/s, 266° | 297 W/m² | - |
| 1778006246 | 15° C | 42% | 1014.5 hPa | 0 mm | 5.36 m/s, 265° | 288 W/m² | - |
| 1778005951 | 15° C | 43% | 1014.2 hPa | 0 mm | 4.02 m/s, 279° | 305 W/m² | - |
| 1778005640 | 15° C | 44% | 1014.2 hPa | 0 mm | 3.58 m/s, 254° | 314 W/m² | - |
| 1778005337 | 15° C | 44% | 1014.5 hPa | 0 mm | 4.02 m/s, 274° | 404 W/m² | - |
| 1778005033 | 16.11° C | 42% | 1014.6 hPa | 0 mm | 2.68 m/s, 253° | 593 W/m² | - |
| 1778004731 | 16.67° C | 40% | 1014.6 hPa | 0 mm | 3.13 m/s, 250° | 814 W/m² | - |
| 1778004427 | 15° C | 43% | 1014.3 hPa | 0 mm | 1.79 m/s, 267° | 602 W/m² | - |
* Rain latest hour (hover to see other rain measurements)
** Current wind speed in m/s (hover to see current wind gust speed)